Nearby METAR Reports

 

KBJC - Broomfield/Jeffc, Colorado, USA
Distance from station: NNW 11mi, 17km
Updated: 09/24/2018 8:45am
Mostly cloudy
Mostly cloudy
 Wind from S
Wind: S 9 mph , 15 km/h
Temperature: 61°F , 16°C
Dew Point: 41°F , 5°C
Humidity: 48%
Barometer: 30.03 inHg , 1016.9 hPa
Clouds: Mostly cloudy
Visibility: 30 miles , 48 km
Cloud details: Partly cloudy 6000 ft
Mostly cloudy 12000 ft
Mostly cloudy 18000 ft
2018/09/24 14:45 KBJC 241445Z 18008KT 30SM SCT060 BKN120 BKN180 16/05 A3003
KBKF - Buckley Angb/Den, Colorado, USA
Distance from station: E 16mi, 25km
Updated: 09/24/2018 8:58am
Mostly cloudy
Mostly cloudy
 Wind from SSE
Wind: SSE 9 mph , 15 km/h
Temperature: 55°F , 13°C
Dew Point: 43°F , 6°C
Humidity: 63%
Barometer: 30.04 inHg , 1017.3 hPa
Clouds: Mostly cloudy
Visibility: 10 miles , 16 km
Cloud details: Few Clouds 9000 ft
Mostly cloudy 14000 ft
Mostly cloudy 22000 ft
2018/09/24 14:58 KBKF 241458Z 16008KT 10SM FEW090 BKN140 BKN220 13/06 A3004 RMK AO2A SLP115 T01310055 51010
 
KAPA - Denver/Arapahoe, Colorado, USA
Distance from station: SE 16mi, 26km
Updated: 09/24/2018 8:53am
Mostly cloudy
Mostly cloudy
 Wind from S
Wind: S 10 mph , 17 km/h
Temperature: 55°F , 13°C
Dew Point: 41°F , 5°C
Humidity: 59%
Barometer: 30.05 inHg , 1017.6 hPa
Clouds: Mostly cloudy
Visibility: 10 miles , 16 km
Cloud details: Partly cloudy 12000 ft
Mostly cloudy 20000 ft
2018/09/24 14:53 KAPA 241453Z 17009KT 10SM SCT120 BKN200 13/05 A3005 RMK AO2 SLP118 T01330050 51013
KEIK - Erie Muni, Colorado, USA
Distance from station: N 18mi, 29km
Updated: 09/24/2018 9:12am
Mostly cloudy
Mostly cloudy
 Wind from S
Wind: S 12 mph , 19 km/h
Temperature: 63°F , 17°C
Dew Point: 39°F , 4°C
Humidity: 42%
Barometer: 30.05 inHg , 1017.6 hPa
Clouds: Mostly cloudy
Visibility: 10 miles , 16 km
Cloud details: Mostly cloudy 11000 ft
2018/09/24 15:12 KEIK 241512Z AUTO 19010KT 10SM BKN110 17/04 A3005 RMK AO2 T01690043
 
KBDU - Boulder Muni, Colorado, USA
Distance from station: NNW 22mi, 35km
Updated: 09/24/2018 9:12am
Clear
Clear
 Wind from NNE
Wind: NNE 6 mph , 9 km/h
Temperature: 63°F , 17°C
Dew Point: 41°F , 5°C
Humidity: 45%
Barometer: 30.01 inHg , 1016.3 hPa
Clouds: Clear
Visibility: 10 miles , 16 km
2018/09/24 15:12 KBDU 241512Z AUTO 02005KT 10SM CLR 17/05 A3001 RMK AO2
KDEN - Denver (dia), Colorado, USA
Distance from station: ENE 22mi, 35km
Updated: 09/24/2018 8:53am
Mostly cloudy
Mostly cloudy
 Wind from S
Wind: S 12 mph , 19 km/h
Temperature: 57°F , 14°C
Dew Point: 41°F , 5°C
Humidity: 55%
Barometer: 30.01 inHg , 1016.3 hPa
Clouds: Mostly cloudy
Visibility: 10 miles , 16 km
Cloud details: Few Clouds 10000 ft
Mostly cloudy 14000 ft
Mostly cloudy 22000 ft
2018/09/24 14:53 KDEN 241453Z 17010KT 10SM FEW100 BKN140 BKN220 14/05 A3001 RMK AO2 SLP095 T01390050 51009
 
KFTG - Denver F. Range, Colorado, USA
Distance from station: E 26mi, 42km
Updated: 09/24/2018 8:55am
Mostly cloudy
Mostly cloudy
 Wind from SSE
Wind: SSE 7 mph , 11 km/h
Temperature: 59°F , 15°C
Dew Point: 41°F , 5°C
Humidity: 51%
Barometer: 30.03 inHg , 1016.9 hPa
Clouds: Mostly cloudy
Visibility: 10 miles , 16 km
Cloud details: Partly cloudy 12000 ft
Mostly cloudy 15000 ft
Mostly cloudy 25000 ft
2018/09/24 14:55 KFTG 241455Z 15006KT 10SM SCT120 BKN150 BKN250 15/05 A3003
KLMO - Longmont/Vbrand, Colorado, USA
Distance from station: NNW 29mi, 47km
Updated: 09/24/2018 9:15am
Partly cloudy
Partly cloudy
 Wind from ESE
Wind: ESE 5 mph , 7 km/h
Temperature: 68°F , 20°C
Dew Point: 43°F , 6°C
Humidity: 40%
Barometer: 30.01 inHg , 1016.3 hPa
Clouds: Partly cloudy
Visibility: 7 miles , 11 km
Cloud details: Partly cloudy 10000 ft
Partly cloudy 12000 ft
2018/09/24 15:15 KLMO 241515Z AUTO 12004KT 7SM SCT100 SCT120 20/06 A3001 RMK AO2 T02000061
 
K0CO - Berthoud Pass, Colorado, USA
Distance from station: W 39mi, 62km
Updated: 09/24/2018 9:24am
Haze, Overcast
Haze, Overcast
 Wind from WNW
Wind: WNW 21 mph , 33 km/h, Gust: 32 mph , 52 km/h
Temperature: 32°F , 0°C
Wind Chill: 20°F , -7°C
Dew Point: 16°F , -9°C
Humidity: 51%
Barometer: 30.36 inHg , 1028.1 hPa
Summary: Haze
Clouds: Overcast
Visibility: less than 1/4 mile , 0.4 km
Cloud details: Overcast 100 ft
2018/09/24 15:24 K0CO 241524Z AUTO 29018G28KT M1/4SM HZ OVC001 00/M09 A3036 RMK AO2
KMNH - Monument/Elbert, Colorado, USA
Distance from station: SSE 43mi, 68km
Updated: 09/24/2018 9:06am
Clear
Clear
 Wind from NE
Wind: NE 6 mph , 9 km/h
Temperature: 54°F , 12°C
Dew Point: 37°F , 3°C
Humidity: 54%
Barometer: 30.12 inHg , 1020 hPa
Clouds: Clear
Visibility: 10 miles , 16 km
2018/09/24 15:06 KMNH 241506Z AUTO 04005KT 10SM CLR 12/03 A3012 RMK AO2
 
KFNL - Ft Collins/Lovel, Colorado, USA
Distance from station: N 48mi, 78km
Updated: 09/24/2018 8:56am
Overcast
Overcast
 Wind from SW
Wind: SW 12 mph , 19 km/h
Temperature: 63°F , 17°C
Dew Point: 45°F , 7°C
Humidity: 52%
Barometer: 29.98 inHg , 1015.2 hPa
Clouds: Overcast
Visibility: 10 miles , 16 km
Cloud details: Few Clouds 7000 ft
Overcast 10000 ft
2018/09/24 14:56 KFNL 241456Z AUTO 22010KT 10SM FEW070 OVC100 17/07 A2998 RMK AO2 WSHFT 1354 RAB40E54 SLP099 6//// T01670067 51017 PNO $